Time;durP1;ratioP1;P1;durP2;ratioP2;P2;SDS_P1;SDS_P2;PMS_P1;PMS_P2;Temp;Humidity;BMP_temperature;BMP_pressure;BME280_temperature;BME280_humidity;BME280_pressure;Samples;Min_cycle;Max_cycle;Signal;HPM_P1;HPM_P2
2022/11/04 00:02:33;;;;;;;2.30;1.50;;;17.40;70.70;;;;;;10479931;28;20037;-54
2022/11/04 00:12:52;;;;;;;3.13;1.40;;;17.40;70.60;;;;;;10456881;28;20483;-54
2022/11/04 00:17:53;;;;;;;2.65;1.23;;;17.30;70.60;;;;;;10476000;28;20200;-55
2022/11/04 00:33:41;;;;;;;2.08;1.00;;;17.40;70.80;;;;;;10459022;28;20116;-55
2022/11/04 00:38:41;;;;;;;3.28;1.45;;;17.40;70.80;;;;;;10457726;28;20104;-54
2022/11/04 00:43:42;;;;;;;3.58;1.25;;;17.30;70.70;;;;;;10445533;28;20052;-54
2022/11/04 00:48:43;;;;;;;3.00;1.38;;;17.30;70.60;;;;;;10445208;28;20468;-55
2022/11/04 00:53:43;;;;;;;1.90;1.05;;;17.30;70.60;;;;;;10451475;28;20055;-55
2022/11/04 00:58:44;;;;;;;2.53;1.00;;;17.30;70.60;;;;;;10465425;28;20105;-53
2022/11/04 01:03:48;;;;;;;2.92;1.30;;;17.30;70.60;;;;;;10453049;28;20824;-53
2022/11/04 01:09:00;;;;;;;3.78;1.58;;;17.30;70.60;;;;;;10452723;28;20026;-53
2022/11/04 01:14:01;;;;;;;2.67;1.15;;;17.30;70.60;;;;;;10478437;28;20036;-54
2022/11/04 01:19:02;;;;;;;3.50;1.30;;;17.30;70.60;;;;;;10451247;28;20017;-55
2022/11/04 01:24:03;;;;;;;2.13;0.90;;;17.30;70.50;;;;;;10491994;28;20028;-54
2022/11/04 01:29:04;;;;;;;2.42;0.85;;;17.30;70.60;;;;;;10465912;28;20432;-55
2022/11/04 01:34:05;;;;;;;2.25;1.17;;;17.30;70.50;;;;;;10492902;28;20035;-54
2022/11/04 01:39:06;;;;;;;2.15;1.08;;;17.20;70.50;;;;;;10473253;28;20032;-55
2022/11/04 01:44:40;;;;;;;1.25;0.63;;;17.30;70.50;;;;;;10464988;28;20033;-53
2022/11/04 01:49:43;;;;;;;1.48;0.90;;;17.20;70.50;;;;;;10483284;28;20518;-54
2022/11/04 01:54:46;;;;;;;2.80;0.80;;;17.20;70.50;;;;;;10476393;28;20040;-54
2022/11/04 01:59:47;;;;;;;1.83;0.77;;;17.20;70.50;;;;;;10449557;28;20051;-55
2022/11/04 02:04:48;;;;;;;4.15;1.02;;;17.20;70.50;;;;;;10450269;28;20098;-54
2022/11/04 02:09:49;;;;;;;2.90;1.42;;;17.20;70.50;;;;;;10449238;28;20025;-55
2022/11/04 02:14:50;;;;;;;1.85;0.80;;;17.20;70.50;;;;;;10456057;28;20494;-54
2022/11/04 02:20:26;;;;;;;1.70;0.70;;;17.20;70.50;;;;;;10484207;28;20029;-54
2022/11/04 02:26:08;;;;;;;2.25;0.90;;;17.20;70.50;;;;;;10448014;28;20476;-55
2022/11/04 02:31:33;;;;;;;1.25;0.93;;;17.20;70.50;;;;;;10446343;28;20033;-55
2022/11/04 02:37:22;;;;;;;2.67;0.90;;;17.20;70.50;;;;;;10461615;28;20032;-54
2022/11/04 02:42:51;;;;;;;3.00;1.48;;;17.20;70.50;;;;;;10478955;28;20045;-54
2022/11/04 02:48:08;;;;;;;1.45;0.65;;;17.20;70.60;;;;;;10458567;28;20041;-55
2022/11/04 02:53:54;;;;;;;1.88;0.93;;;17.20;70.60;;;;;;10452019;28;20009;-55
2022/11/04 02:59:02;;;;;;;1.77;1.08;;;17.20;70.60;;;;;;10403153;28;20048;-55
2022/11/04 03:04:13;;;;;;;2.47;1.35;;;17.20;70.60;;;;;;10438758;28;20049;-56
2022/11/04 03:09:16;;;;;;;2.75;1.20;;;17.20;70.60;;;;;;10459254;28;20046;-56
2022/11/04 03:14:27;;;;;;;2.80;0.85;;;17.20;70.50;;;;;;10459004;28;20025;-56
2022/11/04 03:19:53;;;;;;;2.42;0.90;;;17.20;70.50;;;;;;10449326;28;20033;-55
2022/11/04 03:24:55;;;;;;;1.35;0.90;;;17.20;70.50;;;;;;10446350;28;20029;-55
2022/11/04 03:30:20;;;;;;;1.95;1.08;;;17.10;70.50;;;;;;10459526;28;20049;-55
2022/11/04 03:35:21;;;;;;;2.10;1.20;;;17.10;70.50;;;;;;10459259;28;20033;-55
2022/11/04 03:40:22;;;;;;;1.80;0.90;;;17.10;70.50;;;;;;10461365;28;20036;-55
2022/11/04 03:45:23;;;;;;;1.58;0.95;;;17.10;70.50;;;;;;10473435;28;20024;-55
2022/11/04 03:50:31;;;;;;;2.10;0.90;;;17.10;70.50;;;;;;10471861;28;20029;-55
2022/11/04 03:56:15;;;;;;;1.58;0.95;;;17.10;70.50;;;;;;10445203;28;20103;-55
2022/11/04 04:01:16;;;;;;;2.00;1.00;;;17.10;70.50;;;;;;10451994;28;20048;-55
2022/11/04 04:06:23;;;;;;;1.98;1.40;;;17.10;70.50;;;;;;10458872;28;20124;-55
2022/11/04 04:11:43;;;;;;;2.00;0.98;;;17.10;70.50;;;;;;10445066;28;20025;-55
2022/11/04 04:16:47;;;;;;;1.45;0.93;;;17.10;70.50;;;;;;10479618;28;20036;-55
2022/11/04 04:22:01;;;;;;;2.45;1.42;;;17.10;70.50;;;;;;10464633;28;20036;-55
2022/11/04 04:32:25;;;;;;;1.63;0.80;;;17.10;70.50;;;;;;10454890;28;20041;-55
2022/11/04 04:37:26;;;;;;;1.75;0.90;;;17.10;70.50;;;;;;10488861;28;20562;-54
2022/11/04 04:47:55;;;;;;;1.88;0.90;;;17.10;70.50;;;;;;10494945;28;20045;-54
2022/11/04 04:52:58;;;;;;;4.93;1.23;;;17.10;70.50;;;;;;10464796;28;20028;-55
2022/11/04 04:57:59;;;;;;;1.02;0.90;;;17.00;70.40;;;;;;10476343;28;20047;-55
2022/11/04 05:03:00;;;;;;;1.95;0.88;;;17.00;70.40;;;;;;10467805;28;20033;-55
2022/11/04 05:08:07;;;;;;;3.25;1.10;;;17.00;70.50;;;;;;10460098;28;20057;-55
2022/11/04 05:13:28;;;;;;;2.15;1.02;;;17.00;70.50;;;;;;10469800;28;20029;-54
2022/11/04 05:18:29;;;;;;;1.88;0.90;;;17.00;70.50;;;;;;10472123;28;20479;-55
2022/11/04 05:23:30;;;;;;;1.40;0.73;;;17.10;70.60;;;;;;10482469;28;20055;-55
2022/11/04 05:28:31;;;;;;;1.27;0.93;;;17.00;70.50;;;;;;10473514;28;20069;-54
2022/11/04 05:33:32;;;;;;;2.05;0.90;;;17.00;70.50;;;;;;10460417;28;20017;-55
2022/11/04 05:38:33;;;;;;;1.30;1.10;;;17.00;70.40;;;;;;10469373;28;20040;-53
2022/11/04 05:43:35;;;;;;;3.13;1.20;;;17.00;70.50;;;;;;10465838;28;20062;-52
2022/11/04 05:48:35;;;;;;;4.57;1.25;;;17.10;71.20;;;;;;10472778;28;20017;-54
2022/11/04 05:53:36;;;;;;;3.13;1.20;;;17.20;71.30;;;;;;10458774;28;20056;-51
2022/11/04 05:58:37;;;;;;;3.80;1.17;;;17.20;71.50;;;;;;10458894;28;20064;-53
2022/11/04 06:03:37;;;;;;;5.43;1.33;;;17.30;71.90;;;;;;10477225;28;20471;-50
2022/11/04 06:08:38;;;;;;;5.68;1.38;;;17.30;71.80;;;;;;10472176;28;20041;-53
2022/11/04 06:13:39;;;;;;;7.88;1.85;;;17.30;71.70;;;;;;10450279;28;20112;-53
2022/11/04 06:18:39;;;;;;;13.80;2.33;;;17.30;71.60;;;;;;10473441;28;20044;-52
2022/11/04 06:23:41;;;;;;;13.75;2.17;;;17.30;71.20;;;;;;10476274;28;20041;-52
2022/11/04 06:28:42;;;;;;;17.25;2.83;;;17.30;71.50;;;;;;10468447;28;20012;-52
2022/11/04 06:33:43;;;;;;;9.32;2.20;;;17.30;71.60;;;;;;10464771;28;20032;-53
2022/11/04 06:38:44;;;;;;;15.32;3.10;;;17.30;71.70;;;;;;10446256;28;20021;-53
2022/11/04 06:43:44;;;;;;;16.60;2.92;;;17.40;71.50;;;;;;10448131;28;20021;-50
2022/11/04 06:48:45;;;;;;;31.20;4.00;;;17.40;71.90;;;;;;10451444;28;20032;-55
2022/11/04 06:53:46;;;;;;;25.50;4.13;;;17.50;71.80;;;;;;10459685;28;20095;-54
2022/11/04 06:58:51;;;;;;;27.80;4.43;;;17.50;72.20;;;;;;10481929;28;20107;-54
2022/11/04 07:03:57;;;;;;;42.50;8.07;;;17.60;71.60;;;;;;10465361;28;20436;-50
2022/11/04 07:09:00;;;;;;;28.80;6.70;;;17.60;71.80;;;;;;10469628;28;20777;-55
2022/11/04 07:14:01;;;;;;;34.33;6.18;;;17.60;72.40;;;;;;10464693;28;20071;-50
2022/11/04 07:19:03;;;;;;;31.00;6.43;;;17.50;72.30;;;;;;10470728;28;20021;-51
2022/11/04 07:24:04;;;;;;;37.13;6.00;;;17.50;72.80;;;;;;10469505;28;20021;-52
2022/11/04 07:29:05;;;;;;;32.33;5.70;;;17.40;72.60;;;;;;10464592;28;20025;-50
2022/11/04 07:34:06;;;;;;;27.00;4.57;;;17.30;72.40;;;;;;10471866;28;20107;-53
2022/11/04 07:39:06;;;;;;;33.15;5.38;;;17.30;72.70;;;;;;10488438;28;20149;-54
2022/11/04 07:44:11;;;;;;;30.17;5.97;;;17.30;72.50;;;;;;10488405;28;20024;-55
2022/11/04 07:49:12;;;;;;;25.25;5.88;;;17.30;72.30;;;;;;10461813;28;20034;-54
2022/11/04 07:54:13;;;;;;;27.30;5.20;;;17.30;72.50;;;;;;10488264;28;20056;-53
2022/11/04 07:59:13;;;;;;;38.60;4.85;;;17.30;72.50;;;;;;10485648;28;20178;-54
2022/11/04 08:04:14;;;;;;;19.73;4.45;;;17.30;72.50;;;;;;10461512;28;20056;-54
2022/11/04 08:09:15;;;;;;;18.23;4.97;;;17.20;72.40;;;;;;10471639;28;20059;-55
2022/11/04 08:14:15;;;;;;;15.98;4.95;;;17.20;72.50;;;;;;10484611;28;20666;-54
2022/11/04 08:19:16;;;;;;;21.67;3.97;;;17.20;72.50;;;;;;10483634;28;20125;-52
2022/11/04 08:24:17;;;;;;;16.80;3.75;;;17.30;72.30;;;;;;10466128;28;20421;-53
2022/11/04 08:29:18;;;;;;;15.32;3.80;;;17.30;72.30;;;;;;10469177;28;20114;-52
2022/11/04 08:34:18;;;;;;;17.45;3.60;;;17.30;72.30;;;;;;10446123;28;20112;-50
2022/11/04 08:39:19;;;;;;;22.20;5.22;;;17.40;72.50;;;;;;10483657;28;20067;-51
2022/11/04 08:44:20;;;;;;;18.10;3.88;;;17.40;73.60;;;;;;10485680;28;20079;-51
2022/11/04 08:49:20;;;;;;;12.52;4.32;;;17.50;74.60;;;;;;10474532;28;20066;-52
2022/11/04 08:54:23;;;;;;;12.75;3.35;;;17.60;75.30;;;;;;10451724;28;20061;-47
2022/11/04 08:59:24;;;;;;;24.25;5.78;;;17.50;73.90;;;;;;10448012;28;20115;-52
2022/11/04 09:04:24;;;;;;;16.15;4.82;;;17.50;73.50;;;;;;10447319;28;20244;-53
2022/11/04 09:09:25;;;;;;;15.48;3.00;;;17.40;73.80;;;;;;10462142;28;20040;-51
2022/11/04 09:14:26;;;;;;;13.43;3.85;;;17.40;73.50;;;;;;10463103;28;20697;-53
2022/11/04 09:19:26;;;;;;;28.02;4.88;;;17.40;73.50;;;;;;10472647;28;20096;-49
2022/11/04 09:24:27;;;;;;;26.33;5.13;;;17.40;73.80;;;;;;10471010;28;20120;-52
2022/11/04 09:29:32;;;;;;;26.13;4.90;;;17.40;73.60;;;;;;10469153;28;20017;-52
2022/11/04 09:34:33;;;;;;;16.20;4.75;;;17.50;74.60;;;;;;10471710;28;20024;-56
2022/11/04 09:39:33;;;;;;;22.25;5.07;;;17.60;74.50;;;;;;10487383;28;20029;-54
2022/11/04 09:45:00;;;;;;;14.90;4.35;;;17.50;73.30;;;;;;10492863;28;20120;-54
2022/11/04 09:50:02;;;;;;;15.02;3.30;;;17.40;73.50;;;;;;10475092;28;20029;-53
2022/11/04 09:55:24;;;;;;;11.77;3.50;;;17.40;73.70;;;;;;10474657;28;20032;-53
2022/11/04 10:00:29;;;;;;;12.35;2.60;;;17.40;73.60;;;;;;10458191;28;20036;-55
2022/11/04 10:06:08;;;;;;;11.07;3.20;;;17.30;73.60;;;;;;10450505;28;20048;-54
2022/11/04 10:11:43;;;;;;;11.07;3.70;;;17.30;73.50;;;;;;10464059;28;20025;-53
2022/11/04 10:17:30;;;;;;;9.43;3.20;;;17.30;73.30;;;;;;10456570;28;20115;-52
2022/11/04 10:22:47;;;;;;;11.40;2.10;;;17.30;73.30;;;;;;10454337;28;20036;-54
2022/11/04 10:27:58;;;;;;;10.30;2.92;;;17.30;73.30;;;;;;10449663;28;20033;-55
2022/11/04 10:33:43;;;;;;;16.92;4.88;;;17.30;73.00;;;;;;10449793;28;20029;-54
2022/11/04 10:38:51;;;;;;;11.35;2.83;;;17.30;73.20;;;;;;10439663;28;20029;-53
2022/11/04 10:44:05;;;;;;;9.95;2.47;;;17.20;72.90;;;;;;10448057;28;20082;-54
2022/11/04 10:50:02;;;;;;;7.28;3.38;;;17.20;72.90;;;;;;10447864;28;20056;-53
2022/11/04 10:55:42;;;;;;;6.20;2.63;;;17.20;72.80;;;;;;10427800;28;20028;-54
2022/11/04 11:00:43;;;;;;;;;;;17.20;72.60;;;;;;10443135;28;20041;-51
2022/11/04 11:05:44;;;;;;;25.33;4.60;;;17.20;72.70;;;;;;10467718;28;20387;-53
2022/11/04 11:10:51;;;;;;;15.63;3.95;;;17.20;72.80;;;;;;10466266;28;20013;-55
2022/11/04 11:16:16;;;;;;;12.90;3.60;;;17.30;73.10;;;;;;10449125;28;20838;-54
2022/11/04 11:21:20;;;;;;;8.95;3.10;;;17.30;73.20;;;;;;10472374;28;20103;-53
2022/11/04 11:26:29;;;;;;;5.45;2.63;;;17.40;73.20;;;;;;10461560;28;20476;-53
2022/11/04 11:31:37;;;;;;;;;;;17.40;73.20;;;;;;10457387;28;20031;-52
2022/11/04 11:36:39;;;;;;;8.57;2.80;;;17.40;73.70;;;;;;10457887;28;19927;-54
2022/11/04 11:42:02;;;;;;;7.93;2.72;;;17.40;72.90;;;;;;10488760;28;20025;-53
2022/11/04 11:47:35;;;;;;;7.95;2.85;;;17.40;73.20;;;;;;10485398;28;20090;-51
2022/11/04 11:52:37;;;;;;;14.00;3.28;;;17.40;73.30;;;;;;10447087;28;20029;-54
2022/11/04 11:58:15;;;;;;;8.60;3.22;;;17.40;73.20;;;;;;10470624;28;20131;-50
2022/11/04 12:03:36;;;;;;;6.78;2.83;;;17.40;73.20;;;;;;10488005;28;20020;-54
2022/11/04 12:08:42;;;;;;;11.23;4.32;;;17.40;73.40;;;;;;10472945;28;20063;-52
2022/11/04 12:13:57;;;;;;;11.07;3.30;;;17.50;73.30;;;;;;10458320;28;20043;-53
2022/11/04 12:19:26;;;;;;;8.68;2.78;;;17.50;73.50;;;;;;10467544;28;20021;-53
2022/11/04 12:24:38;;;;;;;6.77;2.90;;;17.50;73.30;;;;;;10450616;28;20501;-54
2022/11/04 12:30:13;;;;;;;9.02;3.38;;;17.50;73.20;;;;;;10451460;28;20286;-55
2022/11/04 12:35:53;;;;;;;8.30;2.63;;;17.50;73.20;;;;;;10452855;28;20400;-54
2022/11/04 12:41:15;;;;;;;9.90;4.63;;;17.40;72.70;;;;;;10463428;28;20584;-55
2022/11/04 12:46:27;;;;;;;8.13;2.55;;;17.30;72.80;;;;;;10458436;28;20032;-55
2022/11/04 12:52:11;;;;;;;7.30;2.78;;;17.30;73.30;;;;;;10457998;28;20013;-55
2022/11/04 12:57:34;;;;;;;8.27;2.35;;;17.30;72.70;;;;;;10469780;28;20017;-55
2022/11/04 13:02:53;;;;;;;7.68;2.80;;;17.30;72.80;;;;;;10466847;28;20029;-56
2022/11/04 13:08:12;;;;;;;6.67;3.20;;;17.30;72.90;;;;;;10467309;28;20041;-55
2022/11/04 13:13:17;;;;;;;8.68;3.05;;;17.30;72.60;;;;;;10469484;28;20069;-54
2022/11/04 13:18:20;;;;;;;13.48;4.85;;;17.30;72.70;;;;;;10467604;28;20146;-49
2022/11/04 13:23:51;;;;;;;18.10;5.10;;;17.40;73.20;;;;;;10460917;28;20044;-54
2022/11/04 13:29:25;;;;;;;18.35;4.72;;;17.50;73.10;;;;;;10477813;28;20039;-55
2022/11/04 13:35:01;;;;;;;20.17;4.90;;;17.60;72.50;;;;;;10445356;28;20179;-54
2022/11/04 13:40:16;;;;;;;21.42;4.80;;;17.60;73.10;;;;;;10451311;28;20052;-55
2022/11/04 13:45:19;;;;;;;19.88;5.28;;;17.60;72.50;;;;;;10457826;28;20056;-54
2022/11/04 13:50:38;;;;;;;32.05;5.28;;;17.50;73.10;;;;;;10455574;28;20039;-55
2022/11/04 13:55:51;;;;;;;26.13;6.27;;;17.60;73.20;;;;;;10461028;28;20048;-54
2022/11/04 14:01:27;;;;;;;18.58;6.65;;;17.60;73.40;;;;;;10492170;28;20360;-55
2022/11/04 14:06:58;;;;;;;20.17;5.10;;;17.70;73.20;;;;;;10492299;28;20403;-53
2022/11/04 14:12:12;;;;;;;25.38;5.80;;;17.70;73.20;;;;;;10472876;28;20112;-55
2022/11/04 14:17:34;;;;;;;25.92;6.20;;;17.70;73.10;;;;;;10470858;28;20408;-54
2022/11/04 14:23:00;;;;;;;25.20;6.10;;;17.60;73.50;;;;;;10458986;28;20029;-53
2022/11/04 14:28:02;;;;;;;24.90;5.85;;;17.50;73.70;;;;;;10451335;28;20045;-52
2022/11/04 14:33:07;;;;;;;21.48;5.88;;;17.50;74.00;;;;;;10468832;28;20639;-53
2022/11/04 14:38:31;;;;;;;17.35;5.45;;;17.50;74.30;;;;;;10460145;28;20120;-54
2022/11/04 14:43:34;;;;;;;33.65;6.90;;;17.40;74.50;;;;;;10466000;28;20056;-54
2022/11/04 14:48:39;;;;;;;33.38;6.03;;;17.40;74.50;;;;;;10474129;28;20032;-54
2022/11/04 14:53:40;;;;;;;22.70;6.22;;;17.40;74.80;;;;;;10489041;28;20577;-54
2022/11/04 14:59:04;;;;;;;19.80;5.68;;;17.40;74.90;;;;;;10468233;28;20037;-55
2022/11/04 15:04:28;;;;;;;36.17;6.68;;;17.40;75.00;;;;;;10449243;28;20060;-55
2022/11/04 15:09:34;;;;;;;36.03;7.00;;;17.40;75.20;;;;;;10456744;28;20502;-54
2022/11/04 15:14:36;;;;;;;32.22;6.90;;;17.40;75.20;;;;;;10462829;28;20472;-50
2022/11/04 15:19:37;;;;;;;32.50;7.70;;;17.50;75.10;;;;;;10464760;28;20029;-55
2022/11/04 15:24:42;;;;;;;25.95;5.40;;;17.60;75.00;;;;;;10447893;28;20549;-53
2022/11/04 15:30:01;;;;;;;24.48;5.97;;;17.70;74.70;;;;;;10446132;28;20722;-53
2022/11/04 15:35:02;;;;;;;24.65;5.25;;;17.70;74.50;;;;;;10447796;28;20052;-54
2022/11/04 15:40:05;;;;;;;27.88;5.00;;;17.70;74.40;;;;;;10447238;28;20051;-54
2022/11/04 15:45:21;;;;;;;24.70;5.03;;;17.70;74.80;;;;;;10447456;28;20017;-47
2022/11/04 15:50:24;;;;;;;26.15;5.57;;;17.60;74.80;;;;;;10452516;28;20037;-53
2022/11/04 15:55:26;;;;;;;26.05;5.22;;;17.60;74.40;;;;;;10447029;28;20368;-52
2022/11/04 16:00:27;;;;;;;17.20;5.90;;;17.90;78.20;;;;;;10454215;28;20041;-54
2022/11/04 16:05:36;;;;;;;20.17;4.97;;;18.00;76.40;;;;;;10472070;28;20155;-51
2022/11/04 16:10:38;;;;;;;22.15;4.72;;;17.90;76.40;;;;;;10470708;28;20848;-53
2022/11/04 16:15:47;;;;;;;27.92;5.40;;;17.80;76.20;;;;;;10468179;28;20124;-55
2022/11/04 16:20:51;;;;;;;23.20;5.38;;;17.70;77.40;;;;;;10473098;28;20035;-52
2022/11/04 16:26:04;;;;;;;20.80;4.88;;;17.70;77.00;;;;;;10476770;28;20033;-55
2022/11/04 16:31:28;;;;;;;18.90;5.00;;;17.70;78.50;;;;;;10466419;28;20074;-52
2022/11/04 16:36:29;;;;;;;25.20;5.88;;;17.70;77.30;;;;;;10464106;28;20434;-53
2022/11/04 16:41:37;;;;;;;22.08;4.78;;;17.70;76.30;;;;;;10469707;28;20024;-55
2022/11/04 16:46:39;;;;;;;17.90;5.90;;;17.60;76.70;;;;;;10475816;28;20037;-55
2022/11/04 16:51:40;;;;;;;20.70;4.22;;;17.60;78.30;;;;;;10469525;28;20282;-54
2022/11/04 16:56:41;;;;;;;21.52;3.80;;;17.60;74.30;;;;;;10472468;28;20017;-55
2022/11/04 17:01:41;;;;;;;25.83;5.60;;;17.50;74.60;;;;;;10466167;28;20111;-54
2022/11/04 17:06:42;;;;;;;16.45;4.57;;;17.50;74.00;;;;;;10489756;28;20575;-58
2022/11/04 17:11:43;;;;;;;26.35;7.22;;;17.70;74.10;;;;;;10465980;28;20056;-55
2022/11/04 17:16:43;;;;;;;22.08;6.32;;;18.00;76.00;;;;;;10452898;28;20137;-53
2022/11/04 17:21:45;;;;;;;22.08;5.43;;;18.00;76.70;;;;;;10473432;28;20407;-55
2022/11/04 17:26:45;;;;;;;11.00;5.38;;;17.90;77.60;;;;;;10452810;28;20128;-56
2022/11/04 17:31:46;;;;;;;11.55;5.80;;;17.90;76.20;;;;;;10455720;28;20025;-53
2022/11/04 17:36:47;;;;;;;16.10;5.35;;;17.90;76.40;;;;;;10451786;28;20395;-55
2022/11/04 17:47:07;;;;;;;28.80;5.57;;;18.00;75.90;;;;;;10474851;28;20048;-55
2022/11/04 17:52:07;;;;;;;13.57;4.88;;;18.00;75.90;;;;;;10457103;28;20104;-55
2022/11/04 17:57:08;;;;;;;23.67;5.28;;;18.00;76.10;;;;;;10467044;28;20104;-56
2022/11/04 18:02:09;;;;;;;21.23;4.47;;;17.90;76.20;;;;;;10482958;28;20147;-57
2022/11/04 18:07:10;;;;;;;30.17;6.68;;;17.80;76.30;;;;;;10464728;28;20049;-56
2022/11/04 18:17:30;;;;;;;20.00;5.63;;;17.70;76.10;;;;;;10463312;28;20037;-54
2022/11/04 18:22:31;;;;;;;20.52;5.22;;;17.60;75.80;;;;;;10458858;28;20048;-56
2022/11/04 18:27:32;;;;;;;24.88;5.32;;;17.50;75.70;;;;;;10491344;28;20123;-56
2022/11/04 18:32:32;;;;;;;20.48;5.93;;;17.50;75.70;;;;;;10473349;28;20071;-55
2022/11/04 18:37:33;;;;;;;13.10;4.55;;;17.50;75.80;;;;;;10449501;28;20076;-56
2022/11/04 18:42:35;;;;;;;14.05;4.05;;;17.50;75.70;;;;;;10463223;28;20723;-56
2022/11/04 18:47:35;;;;;;;18.65;5.18;;;17.40;75.70;;;;;;10463882;28;20442;-56
2022/11/04 18:52:36;;;;;;;10.65;4.05;;;17.40;75.50;;;;;;10473480;28;20115;-56
2022/11/04 18:57:37;;;;;;;16.30;4.82;;;17.40;75.30;;;;;;10476583;28;20579;-56
2022/11/04 19:02:37;;;;;;;9.88;3.80;;;17.40;75.40;;;;;;10470720;28;20017;-51
2022/11/04 19:07:40;;;;;;;13.40;4.30;;;17.30;75.20;;;;;;10467166;28;20117;-58
2022/11/04 19:18:00;;;;;;;12.93;4.27;;;17.30;75.10;;;;;;10461639;28;20028;-56
2022/11/04 19:23:01;;;;;;;10.30;4.03;;;17.30;74.90;;;;;;10456645;28;20057;-56
2022/11/04 19:28:02;;;;;;;8.00;3.00;;;17.30;74.80;;;;;;10459875;28;20025;-56
2022/11/04 19:33:03;;;;;;;10.75;2.58;;;17.30;74.80;;;;;;10461675;28;20029;-55
2022/11/04 19:38:05;;;;;;;10.48;4.28;;;17.20;74.60;;;;;;10467958;28;20415;-55
2022/11/04 19:43:08;;;;;;;9.77;3.03;;;17.20;74.60;;;;;;10455696;28;20072;-55
2022/11/04 19:48:09;;;;;;;5.85;3.92;;;17.20;74.60;;;;;;10460427;28;20609;-55
2022/11/04 19:53:10;;;;;;;6.15;2.78;;;17.20;74.60;;;;;;10467783;28;20013;-56
2022/11/04 19:58:10;;;;;;;12.93;3.80;;;17.20;74.50;;;;;;10473154;28;20025;-56
2022/11/04 20:03:12;;;;;;;7.47;3.47;;;17.10;74.40;;;;;;10457708;28;20071;-54
2022/11/04 20:08:14;;;;;;;7.20;2.80;;;17.10;74.30;;;;;;10473101;28;20053;-55
2022/11/04 20:18:37;;;;;;;6.40;2.35;;;17.10;74.00;;;;;;10465519;28;20028;-55
2022/11/04 20:23:38;;;;;;;9.18;3.40;;;17.20;74.00;;;;;;10459726;28;20029;-53
2022/11/04 20:28:39;;;;;;;8.55;4.13;;;17.30;74.20;;;;;;10482933;28;20094;-55
2022/11/04 20:33:40;;;;;;;8.45;2.95;;;17.20;74.00;;;;;;10482159;28;20017;-52
2022/11/04 20:38:41;;;;;;;4.35;2.35;;;17.10;73.90;;;;;;10445656;28;20053;-54
2022/11/04 20:43:42;;;;;;;4.90;2.25;;;17.10;74.00;;;;;;10457537;28;20035;-52
2022/11/04 20:48:42;;;;;;;6.40;2.90;;;17.00;73.90;;;;;;10460516;28;20091;-53
2022/11/04 20:53:44;;;;;;;7.97;2.88;;;17.00;73.90;;;;;;10455653;28;20023;-53
2022/11/04 20:58:45;;;;;;;8.45;2.88;;;17.00;74.00;;;;;;10475634;28;20057;-53
2022/11/04 21:03:46;;;;;;;7.43;2.10;;;17.00;73.90;;;;;;10475602;28;20132;-53
2022/11/04 21:08:47;;;;;;;6.57;2.40;;;17.00;73.80;;;;;;10448622;28;20037;-54
2022/11/04 21:13:48;;;;;;;5.45;1.95;;;17.00;73.70;;;;;;10453488;28;20052;-52
2022/11/04 21:18:48;;;;;;;4.22;2.22;;;16.90;73.60;;;;;;10452993;28;20112;-53
2022/11/04 21:23:54;;;;;;;4.60;2.40;;;17.00;73.70;;;;;;10480619;28;20067;-54
2022/11/04 21:29:00;;;;;;;8.85;3.05;;;16.90;73.60;;;;;;10451263;28;20044;-53
2022/11/04 21:34:02;;;;;;;4.15;2.10;;;16.90;73.50;;;;;;10446656;28;20070;-54
2022/11/04 21:39:03;;;;;;;4.78;2.28;;;16.90;73.60;;;;;;10452307;28;20025;-54
2022/11/04 21:44:12;;;;;;;4.30;2.03;;;16.90;73.50;;;;;;10451988;28;20135;-54
2022/11/04 21:49:13;;;;;;;4.03;2.10;;;16.90;73.50;;;;;;10452228;28;20017;-54
2022/11/04 21:54:13;;;;;;;6.05;2.13;;;16.90;73.30;;;;;;10451746;28;20096;-52
2022/11/04 21:59:14;;;;;;;3.40;1.60;;;16.90;73.40;;;;;;10451880;28;20113;-55
2022/11/04 22:04:14;;;;;;;2.97;2.13;;;16.80;73.50;;;;;;10450949;28;20072;-53
2022/11/04 22:09:15;;;;;;;4.25;2.55;;;16.80;73.30;;;;;;10450944;28;20086;-56
2022/11/04 22:14:16;;;;;;;5.65;2.13;;;16.80;73.40;;;;;;10477068;28;20029;-52
2022/11/04 22:19:16;;;;;;;4.57;2.22;;;16.80;73.40;;;;;;10461504;28;20471;-54
2022/11/04 22:24:17;;;;;;;4.80;1.80;;;16.80;73.30;;;;;;10491445;28;20056;-54
2022/11/04 22:29:18;;;;;;;3.97;2.35;;;16.80;73.20;;;;;;10488501;28;20029;-54
2022/11/04 22:34:19;;;;;;;3.30;2.28;;;16.80;73.20;;;;;;10461312;28;20107;-52
2022/11/04 22:39:19;;;;;;;5.18;2.67;;;16.80;73.20;;;;;;10449669;28;20056;-54
2022/11/04 22:44:20;;;;;;;5.22;2.65;;;16.80;73.10;;;;;;10449431;28;20674;-54
2022/11/04 22:49:21;;;;;;;3.70;1.90;;;16.70;73.00;;;;;;10456337;28;20171;-54
2022/11/04 22:54:22;;;;;;;4.15;2.05;;;16.70;72.80;;;;;;10458593;28;20021;-54
2022/11/04 22:59:23;;;;;;;5.82;2.40;;;16.70;72.70;;;;;;10449165;28;20052;-55
2022/11/04 23:04:23;;;;;;;3.35;1.50;;;16.70;72.90;;;;;;10448497;28;20060;-54
2022/11/04 23:09:24;;;;;;;2.45;1.70;;;16.70;72.70;;;;;;10448890;28;20025;-54
2022/11/04 23:18:40;;;;;;;3.38;1.52;;;16.70;72.80;;;;;;10448113;28;20056;-54
2022/11/04 23:19:54;;;;;;;2.57;1.90;;;16.70;72.80;;;;;;10471242;28;20026;-53
2022/11/04 23:25:10;;;;;;;4.07;2.33;;;16.70;72.70;;;;;;10448071;28;20380;-53
2022/11/04 23:30:21;;;;;;;3.58;1.95;;;16.70;72.70;;;;;;10446346;28;20041;-54
